Details From RKPC - Jeju
To RJDT - TSUSHIMA
Flight Number -
Tags None
Created
Modified
Stats Distance 158 nm / 294 km
Max Altitude 22,000 ft / 6,706 m
Waypoints 5
Social Downloads 5
Likes 0
Share VATSIM

Download

Looking for another format? Having issues loading an existing format? Contact us
Advertisement - Login to hide

Notes

None

Route

+33.506_+126.491 RKPC TAMNA SAMDO RJDT

ID Type Via Altitude Latitude Longitude Leg Dist Tot Dist Heading (true) Name
O +33.506_+126.491 LATLON - 0 ft / 0 m 33.50682˚ 126.49117˚ - 0 nm - -
RKPC APT - 0 ft / 0 m 33.50740˚ 126.48312˚ 0 nm 0 nm 275° / 275° -
TAMNA FIX - 19,000 ft / 5,791 m 33.47111˚ 127.33139˚ 42 nm 42 nm 93° / 93° -
SAMDO FIX - 22,000 ft / 6,706 m 33.58417˚ 128.31583˚ 49 nm 92 nm 82° / 82° -
O RJDT APT - 0 ft / 0 m 34.28489˚ 129.33055˚ 65 nm 158 nm 50° / 51° TSUSHIMA

Altitude Profile

Advertisement - Login to hide

RKPC

Details ICAO RKPC (CJU)
Name JEJU INTL
Region South Korea
Timezone Asia/Seoul (UTC+9.0)
Stats Elevation 118 ft / 36 m (AMSL)
Location 33.508980° 126.489397°
Runways 2
Magnetic Variation 7.204° W

METAR

RKPC 130100Z 36008KT 330V040 9999 BKN030 03/M04 Q1032 NOSIG

Decode

TAF

TAF RKPC 122300Z 1300/1406 36008KT 9999 BKN030 TX05/1306Z TN03/1320Z TX07/1406Z BECMG 1316/1317 SCT030 BECMG 1321/1322 18005KT BECMG 1401/1402 03006KT

Decode

Departure Runways

ID Width Length Bearing (true) Bearing (mag) Surface Threshold Offset Overrun Length
06 148 ft / 45 m 9,830 ft / 2,996 m 58.37° 65.57° Asphalt 0 ft / 0 m 197 ft / 60 m
13 148 ft / 45 m 6,267 ft / 1,910 m 125.72° 132.92° Asphalt 0 ft / 0 m 0 ft / 0 m
24 148 ft / 45 m 9,830 ft / 2,996 m 238.38° 245.58° Asphalt 0 ft / 0 m 197 ft / 60 m
31 148 ft / 45 m 6,267 ft / 1,910 m 305.73° 312.93° Asphalt 1,350 ft / 411 m 295 ft / 90 m

RJDT

Details ICAO RJDT (TSJ)
Name TSUSHIMA
Region Japan
Timezone Asia/Tokyo (UTC+9.0)
Stats Elevation 213 ft / 65 m (AMSL)
Location 34.284889° 129.330550°
Runways 1
Magnetic Variation 7.624° W

METAR

RJDT 130100Z 30014KT 260V330 9999 FEW035 01/M09 Q1028

Decode

TAF

Not found

Destination Runways

ID Width Length Bearing (true) Bearing (mag) Surface Threshold Offset Overrun Length
14 150 ft / 46 m 6,237 ft / 1,901 m 136.16° 143.78° Asphalt 0 ft / 0 m 200 ft / 61 m
32 150 ft / 46 m 6,237 ft / 1,901 m 316.16° 323.78° Asphalt 0 ft / 0 m 200 ft / 61 m